createdAt,value
2022-11-09T00:06:20.000Z,980.82
2022-11-09T00:20:58.000Z,980.82
2022-11-09T00:35:36.000Z,980.66
2022-11-09T00:50:11.000Z,980.48
2022-11-09T01:04:50.000Z,980.79
2022-11-09T01:19:30.000Z,980.92
2022-11-09T01:34:06.000Z,980.74
2022-11-09T01:48:44.000Z,980.44
2022-11-09T02:03:25.000Z,980.44
2022-11-09T02:17:56.000Z,980.42
2022-11-09T02:32:31.000Z,980.55
2022-11-09T02:47:08.000Z,980.49
2022-11-09T03:01:47.000Z,980.42
2022-11-09T03:16:23.000Z,980.58
2022-11-09T03:31:02.000Z,980.84
2022-11-09T03:45:41.000Z,980.92
2022-11-09T04:00:24.000Z,981.02
2022-11-09T04:14:55.000Z,980.80
2022-11-09T04:29:34.000Z,980.73
2022-11-09T04:44:13.000Z,980.66
2022-11-09T04:58:52.000Z,980.67
2022-11-09T05:13:31.000Z,980.61
2022-11-09T05:28:10.000Z,980.83
2022-11-09T05:42:48.000Z,980.86
2022-11-09T05:57:24.000Z,980.85
2022-11-09T06:12:03.000Z,980.82
2022-11-09T06:26:44.000Z,981.10
2022-11-09T06:41:22.000Z,981.20
2022-11-09T06:56:01.000Z,981.35
2022-11-09T07:10:41.000Z,981.50
2022-11-09T07:25:20.000Z,981.46
2022-11-09T07:39:59.000Z,981.57
2022-11-09T07:54:38.000Z,981.69
2022-11-09T08:09:19.000Z,981.85
2022-11-09T08:23:59.000Z,981.95
2022-11-09T08:38:38.000Z,982.09
2022-11-09T08:53:24.000Z,982.09
2022-11-09T09:08:03.000Z,982.27
2022-11-09T09:22:38.000Z,982.42
2022-11-09T09:37:16.000Z,982.33
2022-11-09T09:51:55.000Z,982.39
2022-11-09T10:06:32.000Z,982.67
2022-11-09T10:35:52.000Z,982.65
2022-11-09T10:50:28.000Z,982.65
2022-11-09T11:05:05.000Z,982.79
2022-11-09T11:19:42.000Z,982.75
2022-11-09T11:34:20.000Z,982.91
2022-11-09T11:48:57.000Z,982.97
2022-11-09T12:03:33.000Z,982.88
2022-11-09T12:18:13.000Z,982.90
2022-11-09T12:32:52.000Z,982.86
2022-11-09T12:47:30.000Z,982.75
2022-11-09T13:02:07.000Z,982.86
2022-11-09T13:16:44.000Z,982.88
2022-11-09T13:31:22.000Z,982.89
2022-11-09T13:45:59.000Z,982.84
2022-11-09T14:00:38.000Z,982.91
2022-11-09T14:15:17.000Z,982.93
2022-11-09T14:29:52.000Z,983.03
2022-11-09T14:44:32.000Z,983.13
2022-11-09T14:59:01.000Z,983.25
2022-11-09T15:13:39.000Z,983.41
2022-11-09T15:28:18.000Z,983.50
2022-11-09T15:42:55.000Z,983.69
2022-11-09T15:57:32.000Z,983.84
2022-11-09T16:12:02.000Z,983.92
2022-11-09T16:26:35.000Z,984.08
2022-11-09T16:41:12.000Z,984.51
2022-11-09T16:55:50.000Z,984.57
2022-11-09T17:10:28.000Z,984.87
2022-11-09T17:25:06.000Z,985.07
2022-11-09T17:39:44.000Z,985.27
2022-11-09T17:54:24.000Z,985.48
2022-11-09T18:09:01.000Z,985.77
2022-11-09T18:23:35.000Z,985.90
2022-11-09T18:38:12.000Z,986.24
2022-11-09T18:52:50.000Z,986.29
2022-11-09T19:07:29.000Z,986.49
2022-11-09T19:22:05.000Z,986.64
2022-11-09T19:36:43.000Z,986.88
2022-11-09T19:51:16.000Z,987.21
2022-11-09T20:05:51.000Z,987.28
2022-11-09T20:20:28.000Z,987.46
2022-11-09T20:35:04.000Z,987.72
2022-11-09T20:49:42.000Z,988.05
2022-11-09T21:04:22.000Z,988.22
2022-11-09T21:19:01.000Z,988.34
2022-11-09T21:33:38.000Z,988.49
2022-11-09T21:48:15.000Z,988.75
2022-11-09T22:02:52.000Z,988.85
2022-11-09T22:17:31.000Z,988.92
2022-11-09T22:32:09.000Z,989.03
2022-11-09T22:46:43.000Z,989.11
2022-11-09T23:01:22.000Z,989.20
2022-11-09T23:16:00.000Z,989.23
2022-11-09T23:30:38.000Z,989.40
2022-11-09T23:45:18.000Z,989.59
2022-11-09T23:59:55.000Z,989.84
